sensor_id;sensor_type;location;lat;lon;timestamp;temperature;humidity
37806;DHT22;25082;50.870;0.022;2023-07-31T00:02:14;20.50;77.00
37806;DHT22;25082;50.870;0.022;2023-07-31T00:04:40;20.50;77.00
37806;DHT22;25082;50.870;0.022;2023-07-31T00:07:06;20.50;77.00
37806;DHT22;25082;50.870;0.022;2023-07-31T00:09:33;20.50;77.00
37806;DHT22;25082;50.870;0.022;2023-07-31T00:11:59;20.50;77.00
37806;DHT22;25082;50.870;0.022;2023-07-31T00:14:25;20.50;77.00
37806;DHT22;25082;50.870;0.022;2023-07-31T00:16:50;20.40;77.00
37806;DHT22;25082;50.870;0.022;2023-07-31T00:19:16;20.50;77.10
37806;DHT22;25082;50.870;0.022;2023-07-31T00:21:42;20.50;77.10
37806;DHT22;25082;50.870;0.022;2023-07-31T00:24:07;20.50;77.10
37806;DHT22;25082;50.870;0.022;2023-07-31T00:26:33;20.40;77.60
37806;DHT22;25082;50.870;0.022;2023-07-31T00:28:59;20.40;77.10
37806;DHT22;25082;50.870;0.022;2023-07-31T00:31:25;20.50;77.20
37806;DHT22;25082;50.870;0.022;2023-07-31T00:33:50;20.40;77.10
37806;DHT22;25082;50.870;0.022;2023-07-31T00:36:16;20.40;77.60
37806;DHT22;25082;50.870;0.022;2023-07-31T00:38:43;20.40;77.10
37806;DHT22;25082;50.870;0.022;2023-07-31T00:41:09;20.40;77.10
37806;DHT22;25082;50.870;0.022;2023-07-31T00:43:35;20.40;77.10
37806;DHT22;25082;50.870;0.022;2023-07-31T00:46:00;20.40;77.10
37806;DHT22;25082;50.870;0.022;2023-07-31T00:48:26;20.40;77.10
37806;DHT22;25082;50.870;0.022;2023-07-31T00:50:52;20.40;77.10
37806;DHT22;25082;50.870;0.022;2023-07-31T00:53:18;20.40;77.10
37806;DHT22;25082;50.870;0.022;2023-07-31T00:55:44;20.40;77.10
37806;DHT22;25082;50.870;0.022;2023-07-31T00:58:10;20.40;77.10
37806;DHT22;25082;50.870;0.022;2023-07-31T01:00:36;20.40;77.20
37806;DHT22;25082;50.870;0.022;2023-07-31T01:03:01;20.40;77.20
37806;DHT22;25082;50.870;0.022;2023-07-31T01:06:03;20.40;77.20
37806;DHT22;25082;50.870;0.022;2023-07-31T01:11:50;20.40;77.20
37806;DHT22;25082;50.870;0.022;2023-07-31T01:14:17;20.40;77.20
37806;DHT22;25082;50.870;0.022;2023-07-31T01:16:43;20.40;77.20
37806;DHT22;25082;50.870;0.022;2023-07-31T01:19:10;20.40;77.20
37806;DHT22;25082;50.870;0.022;2023-07-31T01:26:46;20.40;77.20
37806;DHT22;25082;50.870;0.022;2023-07-31T01:32:02;20.40;77.30
37806;DHT22;25082;50.870;0.022;2023-07-31T01:34:29;20.40;77.80
37806;DHT22;25082;50.870;0.022;2023-07-31T01:36:58;20.30;77.30
37806;DHT22;25082;50.870;0.022;2023-07-31T01:39:24;20.40;77.30
37806;DHT22;25082;50.870;0.022;2023-07-31T01:41:50;20.40;77.30
37806;DHT22;25082;50.870;0.022;2023-07-31T01:44:16;20.40;77.30
37806;DHT22;25082;50.870;0.022;2023-07-31T01:46:42;20.40;77.40
37806;DHT22;25082;50.870;0.022;2023-07-31T01:49:07;20.40;77.40
37806;DHT22;25082;50.870;0.022;2023-07-31T01:51:33;20.40;77.50
37806;DHT22;25082;50.870;0.022;2023-07-31T01:54:02;20.40;77.50
37806;DHT22;25082;50.870;0.022;2023-07-31T01:56:28;20.40;77.50
37806;DHT22;25082;50.870;0.022;2023-07-31T01:58:54;20.40;77.50
37806;DHT22;25082;50.870;0.022;2023-07-31T02:01:19;20.40;77.60
37806;DHT22;25082;50.870;0.022;2023-07-31T02:03:45;20.40;77.60
37806;DHT22;25082;50.870;0.022;2023-07-31T02:06:11;20.40;77.60
37806;DHT22;25082;50.870;0.022;2023-07-31T02:08:36;20.40;77.60
37806;DHT22;25082;50.870;0.022;2023-07-31T02:11:03;20.40;77.60
37806;DHT22;25082;50.870;0.022;2023-07-31T02:13:28;20.40;77.60
37806;DHT22;25082;50.870;0.022;2023-07-31T02:15:54;20.40;77.60
37806;DHT22;25082;50.870;0.022;2023-07-31T02:18:20;20.40;77.70
37806;DHT22;25082;50.870;0.022;2023-07-31T02:20:51;20.40;77.70
37806;DHT22;25082;50.870;0.022;2023-07-31T02:23:18;20.40;77.70
37806;DHT22;25082;50.870;0.022;2023-07-31T02:25:44;20.30;77.60
37806;DHT22;25082;50.870;0.022;2023-07-31T02:28:10;20.30;77.70
37806;DHT22;25082;50.870;0.022;2023-07-31T02:30:36;20.30;77.60
37806;DHT22;25082;50.870;0.022;2023-07-31T02:33:02;20.30;77.70
37806;DHT22;25082;50.870;0.022;2023-07-31T02:35:27;20.30;77.70
37806;DHT22;25082;50.870;0.022;2023-07-31T02:37:53;20.30;77.70
37806;DHT22;25082;50.870;0.022;2023-07-31T02:40:19;20.30;77.70
37806;DHT22;25082;50.870;0.022;2023-07-31T02:42:45;20.30;77.70
37806;DHT22;25082;50.870;0.022;2023-07-31T02:45:10;20.30;77.70
37806;DHT22;25082;50.870;0.022;2023-07-31T02:47:36;20.30;77.70
37806;DHT22;25082;50.870;0.022;2023-07-31T02:50:03;20.30;77.70
37806;DHT22;25082;50.870;0.022;2023-07-31T02:52:29;20.30;77.80
37806;DHT22;25082;50.870;0.022;2023-07-31T02:54:54;20.30;77.70
37806;DHT22;25082;50.870;0.022;2023-07-31T02:57:20;20.30;77.70
37806;DHT22;25082;50.870;0.022;2023-07-31T02:59:46;20.30;77.70
37806;DHT22;25082;50.870;0.022;2023-07-31T03:02:11;20.30;77.80
37806;DHT22;25082;50.870;0.022;2023-07-31T03:04:38;20.30;77.90
37806;DHT22;25082;50.870;0.022;2023-07-31T03:07:04;20.30;77.90
37806;DHT22;25082;50.870;0.022;2023-07-31T03:09:30;20.30;77.90
37806;DHT22;25082;50.870;0.022;2023-07-31T03:11:56;20.30;77.80
37806;DHT22;25082;50.870;0.022;2023-07-31T03:14:22;20.30;77.90
37806;DHT22;25082;50.870;0.022;2023-07-31T03:16:48;20.30;77.90
37806;DHT22;25082;50.870;0.022;2023-07-31T03:19:14;20.30;77.90
37806;DHT22;25082;50.870;0.022;2023-07-31T03:21:40;20.30;77.80
37806;DHT22;25082;50.870;0.022;2023-07-31T03:24:05;20.30;77.90
37806;DHT22;25082;50.870;0.022;2023-07-31T03:26:32;20.30;77.90
37806;DHT22;25082;50.870;0.022;2023-07-31T03:28:58;20.30;78.00
37806;DHT22;25082;50.870;0.022;2023-07-31T03:31:24;20.30;78.00
37806;DHT22;25082;50.870;0.022;2023-07-31T03:33:49;20.30;78.00
37806;DHT22;25082;50.870;0.022;2023-07-31T03:36:15;20.30;78.00
37806;DHT22;25082;50.870;0.022;2023-07-31T03:38:41;20.30;78.00
37806;DHT22;25082;50.870;0.022;2023-07-31T03:41:06;20.30;78.00
37806;DHT22;25082;50.870;0.022;2023-07-31T03:43:32;20.30;78.00
37806;DHT22;25082;50.870;0.022;2023-07-31T03:46:01;20.30;78.00
37806;DHT22;25082;50.870;0.022;2023-07-31T03:48:28;20.30;78.00
37806;DHT22;25082;50.870;0.022;2023-07-31T03:50:53;20.30;78.00
37806;DHT22;25082;50.870;0.022;2023-07-31T03:53:20;20.30;78.00
37806;DHT22;25082;50.870;0.022;2023-07-31T03:55:45;20.30;77.90
37806;DHT22;25082;50.870;0.022;2023-07-31T03:58:11;20.30;78.00
37806;DHT22;25082;50.870;0.022;2023-07-31T04:00:37;20.30;78.00
37806;DHT22;25082;50.870;0.022;2023-07-31T04:03:03;20.30;78.10
37806;DHT22;25082;50.870;0.022;2023-07-31T04:05:31;20.30;78.00
37806;DHT22;25082;50.870;0.022;2023-07-31T04:07:56;20.30;78.00
37806;DHT22;25082;50.870;0.022;2023-07-31T04:10:22;20.30;78.10
37806;DHT22;25082;50.870;0.022;2023-07-31T04:12:48;20.30;78.10
37806;DHT22;25082;50.870;0.022;2023-07-31T04:15:14;20.30;78.10
37806;DHT22;25082;50.870;0.022;2023-07-31T04:17:40;20.30;78.10
37806;DHT22;25082;50.870;0.022;2023-07-31T04:20:06;20.30;78.10
37806;DHT22;25082;50.870;0.022;2023-07-31T04:22:32;20.30;78.10
37806;DHT22;25082;50.870;0.022;2023-07-31T04:24:57;20.20;78.10
37806;DHT22;25082;50.870;0.022;2023-07-31T04:27:23;20.20;78.10
37806;DHT22;25082;50.870;0.022;2023-07-31T04:29:49;20.30;78.20
37806;DHT22;25082;50.870;0.022;2023-07-31T04:32:15;20.20;78.20
37806;DHT22;25082;50.870;0.022;2023-07-31T04:34:45;20.30;78.20
37806;DHT22;25082;50.870;0.022;2023-07-31T04:37:10;20.30;78.30
37806;DHT22;25082;50.870;0.022;2023-07-31T04:39:36;20.20;78.20
37806;DHT22;25082;50.870;0.022;2023-07-31T04:42:02;20.30;78.30
37806;DHT22;25082;50.870;0.022;2023-07-31T04:44:27;20.30;78.30
37806;DHT22;25082;50.870;0.022;2023-07-31T04:46:53;20.20;78.20
37806;DHT22;25082;50.870;0.022;2023-07-31T04:49:19;20.20;78.30
37806;DHT22;25082;50.870;0.022;2023-07-31T04:51:45;20.20;78.30
37806;DHT22;25082;50.870;0.022;2023-07-31T04:54:10;20.20;78.40
37806;DHT22;25082;50.870;0.022;2023-07-31T04:56:38;20.20;78.40
37806;DHT22;25082;50.870;0.022;2023-07-31T04:59:03;20.20;78.30
37806;DHT22;25082;50.870;0.022;2023-07-31T05:01:29;20.20;78.50
37806;DHT22;25082;50.870;0.022;2023-07-31T05:03:55;20.30;78.60
37806;DHT22;25082;50.870;0.022;2023-07-31T05:06:20;20.20;78.40
37806;DHT22;25082;50.870;0.022;2023-07-31T05:08:46;20.30;78.60
37806;DHT22;25082;50.870;0.022;2023-07-31T05:11:12;20.20;78.50
37806;DHT22;25082;50.870;0.022;2023-07-31T05:13:37;20.20;78.50
37806;DHT22;25082;50.870;0.022;2023-07-31T05:16:03;20.20;78.50
37806;DHT22;25082;50.870;0.022;2023-07-31T05:18:29;20.20;78.50
37806;DHT22;25082;50.870;0.022;2023-07-31T05:20:55;20.20;78.50
37806;DHT22;25082;50.870;0.022;2023-07-31T05:23:21;20.20;78.60
37806;DHT22;25082;50.870;0.022;2023-07-31T05:25:46;20.20;78.60
37806;DHT22;25082;50.870;0.022;2023-07-31T05:28:13;20.20;78.60
37806;DHT22;25082;50.870;0.022;2023-07-31T05:30:39;20.20;78.60
37806;DHT22;25082;50.870;0.022;2023-07-31T05:33:04;20.20;78.70
37806;DHT22;25082;50.870;0.022;2023-07-31T05:35:30;20.20;78.60
37806;DHT22;25082;50.870;0.022;2023-07-31T05:37:56;20.20;78.70
37806;DHT22;25082;50.870;0.022;2023-07-31T05:40:21;20.20;78.80
37806;DHT22;25082;50.870;0.022;2023-07-31T05:42:47;20.20;78.70
37806;DHT22;25082;50.870;0.022;2023-07-31T05:45:13;20.20;78.70
37806;DHT22;25082;50.870;0.022;2023-07-31T05:47:39;20.20;78.70
37806;DHT22;25082;50.870;0.022;2023-07-31T05:50:05;20.20;78.80
37806;DHT22;25082;50.870;0.022;2023-07-31T05:52:31;20.20;78.80
37806;DHT22;25082;50.870;0.022;2023-07-31T05:54:57;20.20;78.80
37806;DHT22;25082;50.870;0.022;2023-07-31T05:57:22;20.20;78.80
37806;DHT22;25082;50.870;0.022;2023-07-31T05:59:48;20.20;78.80
37806;DHT22;25082;50.870;0.022;2023-07-31T06:02:14;20.20;78.80
37806;DHT22;25082;50.870;0.022;2023-07-31T06:04:40;20.20;79.00
37806;DHT22;25082;50.870;0.022;2023-07-31T06:07:06;20.20;78.90
37806;DHT22;25082;50.870;0.022;2023-07-31T06:09:31;20.20;79.00
37806;DHT22;25082;50.870;0.022;2023-07-31T06:11:57;20.20;78.90
37806;DHT22;25082;50.870;0.022;2023-07-31T06:14:23;20.20;79.00
37806;DHT22;25082;50.870;0.022;2023-07-31T06:16:48;20.20;79.00
37806;DHT22;25082;50.870;0.022;2023-07-31T06:19:14;20.20;79.00
37806;DHT22;25082;50.870;0.022;2023-07-31T06:21:40;20.20;79.00
37806;DHT22;25082;50.870;0.022;2023-07-31T06:24:08;20.20;79.20
37806;DHT22;25082;50.870;0.022;2023-07-31T06:26:34;20.20;79.10
37806;DHT22;25082;50.870;0.022;2023-07-31T06:28:59;20.20;79.20
37806;DHT22;25082;50.870;0.022;2023-07-31T06:31:25;20.20;79.20
37806;DHT22;25082;50.870;0.022;2023-07-31T06:33:51;20.20;79.30
37806;DHT22;25082;50.870;0.022;2023-07-31T06:36:18;20.20;79.30
37806;DHT22;25082;50.870;0.022;2023-07-31T06:38:44;20.20;79.30
37806;DHT22;25082;50.870;0.022;2023-07-31T06:41:10;20.20;79.30
37806;DHT22;25082;50.870;0.022;2023-07-31T06:43:36;20.20;79.20
37806;DHT22;25082;50.870;0.022;2023-07-31T06:46:06;20.20;79.20
37806;DHT22;25082;50.870;0.022;2023-07-31T06:48:35;20.20;79.30
37806;DHT22;25082;50.870;0.022;2023-07-31T06:51:02;20.20;79.30
37806;DHT22;25082;50.870;0.022;2023-07-31T06:53:29;20.20;79.30
37806;DHT22;25082;50.870;0.022;2023-07-31T06:55:55;20.20;79.30
37806;DHT22;25082;50.870;0.022;2023-07-31T06:58:20;20.20;79.50
37806;DHT22;25082;50.870;0.022;2023-07-31T07:00:46;20.20;79.30
37806;DHT22;25082;50.870;0.022;2023-07-31T07:03:12;20.20;79.30
37806;DHT22;25082;50.870;0.022;2023-07-31T07:05:40;20.20;79.40
37806;DHT22;25082;50.870;0.022;2023-07-31T07:08:06;20.20;79.40
37806;DHT22;25082;50.870;0.022;2023-07-31T07:10:31;20.20;79.50
37806;DHT22;25082;50.870;0.022;2023-07-31T07:12:57;20.20;79.50
37806;DHT22;25082;50.870;0.022;2023-07-31T07:15:23;20.20;79.40
37806;DHT22;25082;50.870;0.022;2023-07-31T07:17:48;20.20;79.50
37806;DHT22;25082;50.870;0.022;2023-07-31T07:20:14;20.20;79.60
37806;DHT22;25082;50.870;0.022;2023-07-31T07:22:40;20.20;79.50
37806;DHT22;25082;50.870;0.022;2023-07-31T07:25:08;20.20;79.50
37806;DHT22;25082;50.870;0.022;2023-07-31T07:27:34;20.20;79.40
37806;DHT22;25082;50.870;0.022;2023-07-31T07:30:00;20.20;79.50
37806;DHT22;25082;50.870;0.022;2023-07-31T07:32:26;20.20;79.50
37806;DHT22;25082;50.870;0.022;2023-07-31T07:34:51;20.20;79.40
37806;DHT22;25082;50.870;0.022;2023-07-31T07:37:17;20.20;79.60
37806;DHT22;25082;50.870;0.022;2023-07-31T07:39:43;20.20;79.50
37806;DHT22;25082;50.870;0.022;2023-07-31T07:42:09;20.20;79.60
37806;DHT22;25082;50.870;0.022;2023-07-31T07:44:35;20.20;79.60
37806;DHT22;25082;50.870;0.022;2023-07-31T07:47:01;20.20;79.60
37806;DHT22;25082;50.870;0.022;2023-07-31T07:49:27;20.30;79.70
37806;DHT22;25082;50.870;0.022;2023-07-31T07:51:52;20.30;79.60
37806;DHT22;25082;50.870;0.022;2023-07-31T07:54:18;20.20;79.60
37806;DHT22;25082;50.870;0.022;2023-07-31T07:56:44;20.20;79.70
37806;DHT22;25082;50.870;0.022;2023-07-31T07:59:10;20.20;79.70
37806;DHT22;25082;50.870;0.022;2023-07-31T08:01:36;20.20;79.70
37806;DHT22;25082;50.870;0.022;2023-07-31T08:04:01;20.20;79.50
37806;DHT22;25082;50.870;0.022;2023-07-31T08:06:27;20.20;79.60
37806;DHT22;25082;50.870;0.022;2023-07-31T08:08:55;20.20;79.60
37806;DHT22;25082;50.870;0.022;2023-07-31T08:11:20;20.20;79.30
37806;DHT22;25082;50.870;0.022;2023-07-31T08:13:48;20.20;79.80
37806;DHT22;25082;50.870;0.022;2023-07-31T08:16:14;20.20;80.00
37806;DHT22;25082;50.870;0.022;2023-07-31T08:18:40;20.30;80.10
37806;DHT22;25082;50.870;0.022;2023-07-31T08:21:05;20.30;79.90
37806;DHT22;25082;50.870;0.022;2023-07-31T08:23:31;20.30;79.50
37806;DHT22;25082;50.870;0.022;2023-07-31T08:25:57;20.30;79.60
37806;DHT22;25082;50.870;0.022;2023-07-31T08:28:23;20.30;79.30
37806;DHT22;25082;50.870;0.022;2023-07-31T08:30:48;20.30;79.70
37806;DHT22;25082;50.870;0.022;2023-07-31T08:33:15;20.30;79.80
37806;DHT22;25082;50.870;0.022;2023-07-31T08:35:41;20.30;79.80
37806;DHT22;25082;50.870;0.022;2023-07-31T08:38:07;20.30;79.80
37806;DHT22;25082;50.870;0.022;2023-07-31T08:40:36;20.30;79.90
37806;DHT22;25082;50.870;0.022;2023-07-31T08:43:03;20.30;80.00
37806;DHT22;25082;50.870;0.022;2023-07-31T08:45:30;20.30;79.90
37806;DHT22;25082;50.870;0.022;2023-07-31T08:47:56;20.30;79.90
37806;DHT22;25082;50.870;0.022;2023-07-31T08:50:25;20.30;79.90
37806;DHT22;25082;50.870;0.022;2023-07-31T08:52:51;20.30;79.90
37806;DHT22;25082;50.870;0.022;2023-07-31T08:55:18;20.30;80.00
37806;DHT22;25082;50.870;0.022;2023-07-31T08:57:51;20.30;80.00
37806;DHT22;25082;50.870;0.022;2023-07-31T09:00:17;20.30;80.10
37806;DHT22;25082;50.870;0.022;2023-07-31T09:03:03;20.30;80.10
37806;DHT22;25082;50.870;0.022;2023-07-31T09:05:33;20.30;80.00
37806;DHT22;25082;50.870;0.022;2023-07-31T09:08:02;20.30;80.60
37806;DHT22;25082;50.870;0.022;2023-07-31T09:10:29;20.30;80.00
37806;DHT22;25082;50.870;0.022;2023-07-31T09:12:56;20.30;80.10
37806;DHT22;25082;50.870;0.022;2023-07-31T09:15:23;20.30;79.90
37806;DHT22;25082;50.870;0.022;2023-07-31T09:18:02;20.30;80.00
37806;DHT22;25082;50.870;0.022;2023-07-31T09:20:27;20.30;80.00
37806;DHT22;25082;50.870;0.022;2023-07-31T09:22:55;20.20;80.00
37806;DHT22;25082;50.870;0.022;2023-07-31T09:27:59;20.30;80.00
37806;DHT22;25082;50.870;0.022;2023-07-31T09:30:25;20.30;79.90
37806;DHT22;25082;50.870;0.022;2023-07-31T09:32:52;20.30;80.00
37806;DHT22;25082;50.870;0.022;2023-07-31T09:35:35;20.30;79.90
37806;DHT22;25082;50.870;0.022;2023-07-31T09:38:05;20.30;79.60
37806;DHT22;25082;50.870;0.022;2023-07-31T09:40:50;20.30;79.70
37806;DHT22;25082;50.870;0.022;2023-07-31T09:43:21;20.30;79.70
37806;DHT22;25082;50.870;0.022;2023-07-31T09:45:47;20.30;80.10
37806;DHT22;25082;50.870;0.022;2023-07-31T09:48:17;20.30;79.60
37806;DHT22;25082;50.870;0.022;2023-07-31T09:50:47;20.30;79.80
37806;DHT22;25082;50.870;0.022;2023-07-31T09:53:15;20.30;80.00
37806;DHT22;25082;50.870;0.022;2023-07-31T09:55:41;20.30;79.90
37806;DHT22;25082;50.870;0.022;2023-07-31T09:58:10;20.30;80.40
37806;DHT22;25082;50.870;0.022;2023-07-31T10:00:36;20.30;80.30
37806;DHT22;25082;50.870;0.022;2023-07-31T10:03:05;20.30;80.50
37806;DHT22;25082;50.870;0.022;2023-07-31T10:05:35;20.40;80.60
37806;DHT22;25082;50.870;0.022;2023-07-31T10:08:01;20.40;81.10
37806;DHT22;25082;50.870;0.022;2023-07-31T10:10:28;20.40;80.40
37806;DHT22;25082;50.870;0.022;2023-07-31T10:12:56;20.40;80.50
37806;DHT22;25082;50.870;0.022;2023-07-31T10:15:22;20.40;80.40
37806;DHT22;25082;50.870;0.022;2023-07-31T10:17:50;20.40;80.30
37806;DHT22;25082;50.870;0.022;2023-07-31T10:20:16;20.40;80.60
37806;DHT22;25082;50.870;0.022;2023-07-31T10:22:43;20.40;80.60
37806;DHT22;25082;50.870;0.022;2023-07-31T10:25:11;20.40;80.30
37806;DHT22;25082;50.870;0.022;2023-07-31T10:27:39;20.40;80.50
37806;DHT22;25082;50.870;0.022;2023-07-31T10:30:09;20.40;80.60
37806;DHT22;25082;50.870;0.022;2023-07-31T10:32:35;20.40;80.50
37806;DHT22;25082;50.870;0.022;2023-07-31T10:35:05;20.40;80.50
37806;DHT22;25082;50.870;0.022;2023-07-31T10:37:40;20.40;80.50
37806;DHT22;25082;50.870;0.022;2023-07-31T10:40:15;20.40;80.40
37806;DHT22;25082;50.870;0.022;2023-07-31T10:42:46;20.40;80.60
37806;DHT22;25082;50.870;0.022;2023-07-31T10:45:13;20.40;80.60
37806;DHT22;25082;50.870;0.022;2023-07-31T10:47:46;20.40;80.70
37806;DHT22;25082;50.870;0.022;2023-07-31T10:50:19;20.40;80.70
37806;DHT22;25082;50.870;0.022;2023-07-31T10:52:53;20.40;80.60
37806;DHT22;25082;50.870;0.022;2023-07-31T10:55:41;20.40;80.80
37806;DHT22;25082;50.870;0.022;2023-07-31T10:58:12;20.40;80.70
37806;DHT22;25082;50.870;0.022;2023-07-31T11:00:42;20.40;80.70
37806;DHT22;25082;50.870;0.022;2023-07-31T11:03:17;20.40;80.60
37806;DHT22;25082;50.870;0.022;2023-07-31T11:10:38;20.40;80.60
37806;DHT22;25082;50.870;0.022;2023-07-31T11:13:04;20.40;80.70
37806;DHT22;25082;50.870;0.022;2023-07-31T11:15:31;20.40;80.60
37806;DHT22;25082;50.870;0.022;2023-07-31T11:17:56;20.40;80.70
37806;DHT22;25082;50.870;0.022;2023-07-31T11:20:25;20.40;80.70
37806;DHT22;25082;50.870;0.022;2023-07-31T11:22:50;20.40;80.80
37806;DHT22;25082;50.870;0.022;2023-07-31T11:25:16;20.40;80.90
37806;DHT22;25082;50.870;0.022;2023-07-31T11:27:43;20.40;81.30
37806;DHT22;25082;50.870;0.022;2023-07-31T11:30:10;20.50;80.90
37806;DHT22;25082;50.870;0.022;2023-07-31T11:32:37;20.50;80.80
37806;DHT22;25082;50.870;0.022;2023-07-31T11:35:03;20.50;80.90
37806;DHT22;25082;50.870;0.022;2023-07-31T11:37:43;20.40;81.00
37806;DHT22;25082;50.870;0.022;2023-07-31T11:40:10;20.50;81.10
37806;DHT22;25082;50.870;0.022;2023-07-31T11:42:36;20.50;81.10
37806;DHT22;25082;50.870;0.022;2023-07-31T11:45:06;20.50;81.10
37806;DHT22;25082;50.870;0.022;2023-07-31T11:47:34;20.50;81.20
37806;DHT22;25082;50.870;0.022;2023-07-31T11:50:01;20.50;81.10
37806;DHT22;25082;50.870;0.022;2023-07-31T11:52:29;20.50;81.10
37806;DHT22;25082;50.870;0.022;2023-07-31T11:54:56;20.50;81.20
37806;DHT22;25082;50.870;0.022;2023-07-31T11:57:23;20.50;81.10
37806;DHT22;25082;50.870;0.022;2023-07-31T11:59:49;20.50;81.00
37806;DHT22;25082;50.870;0.022;2023-07-31T12:02:17;20.50;81.00
37806;DHT22;25082;50.870;0.022;2023-07-31T12:04:43;20.50;81.00
37806;DHT22;25082;50.870;0.022;2023-07-31T12:07:09;20.50;81.00
37806;DHT22;25082;50.870;0.022;2023-07-31T12:09:35;20.50;81.00
37806;DHT22;25082;50.870;0.022;2023-07-31T12:12:00;20.50;81.10
37806;DHT22;25082;50.870;0.022;2023-07-31T12:14:30;20.50;81.00
37806;DHT22;25082;50.870;0.022;2023-07-31T12:17:01;20.50;81.10
37806;DHT22;25082;50.870;0.022;2023-07-31T12:19:29;20.50;81.10
37806;DHT22;25082;50.870;0.022;2023-07-31T12:21:59;20.50;81.20
37806;DHT22;25082;50.870;0.022;2023-07-31T12:24:28;20.50;81.10
37806;DHT22;25082;50.870;0.022;2023-07-31T12:26:54;20.50;81.00
37806;DHT22;25082;50.870;0.022;2023-07-31T12:29:20;20.50;81.10
37806;DHT22;25082;50.870;0.022;2023-07-31T12:31:46;20.50;81.10
37806;DHT22;25082;50.870;0.022;2023-07-31T12:34:19;20.50;81.10
37806;DHT22;25082;50.870;0.022;2023-07-31T12:36:49;20.50;81.20
37806;DHT22;25082;50.870;0.022;2023-07-31T12:39:15;20.50;81.40
37806;DHT22;25082;50.870;0.022;2023-07-31T12:41:40;20.50;81.50
37806;DHT22;25082;50.870;0.022;2023-07-31T12:44:06;20.50;81.60
37806;DHT22;25082;50.870;0.022;2023-07-31T12:46:32;20.50;81.60
37806;DHT22;25082;50.870;0.022;2023-07-31T12:48:58;20.50;81.60
37806;DHT22;25082;50.870;0.022;2023-07-31T12:51:24;20.50;81.70
37806;DHT22;25082;50.870;0.022;2023-07-31T12:53:49;20.50;81.70
37806;DHT22;25082;50.870;0.022;2023-07-31T12:56:15;20.50;81.70
37806;DHT22;25082;50.870;0.022;2023-07-31T12:58:41;20.50;81.70
37806;DHT22;25082;50.870;0.022;2023-07-31T13:01:06;20.50;81.80
37806;DHT22;25082;50.870;0.022;2023-07-31T13:03:32;20.60;81.80
37806;DHT22;25082;50.870;0.022;2023-07-31T13:05:58;20.60;81.80
37806;DHT22;25082;50.870;0.022;2023-07-31T13:08:23;20.60;81.80
37806;DHT22;25082;50.870;0.022;2023-07-31T13:10:49;20.50;81.80
37806;DHT22;25082;50.870;0.022;2023-07-31T13:13:15;20.50;81.70
37806;DHT22;25082;50.870;0.022;2023-07-31T13:15:41;20.60;81.80
37806;DHT22;25082;50.870;0.022;2023-07-31T13:18:07;20.50;81.60
37806;DHT22;25082;50.870;0.022;2023-07-31T13:20:32;20.60;81.80
37806;DHT22;25082;50.870;0.022;2023-07-31T13:22:58;20.60;81.80
37806;DHT22;25082;50.870;0.022;2023-07-31T13:25:24;20.60;81.70
37806;DHT22;25082;50.870;0.022;2023-07-31T13:27:49;20.60;81.70
37806;DHT22;25082;50.870;0.022;2023-07-31T13:30:15;20.60;81.70
37806;DHT22;25082;50.870;0.022;2023-07-31T13:32:41;20.60;81.60
37806;DHT22;25082;50.870;0.022;2023-07-31T13:35:07;20.60;81.70
37806;DHT22;25082;50.870;0.022;2023-07-31T13:37:34;20.60;81.70
37806;DHT22;25082;50.870;0.022;2023-07-31T13:40:00;20.60;81.70
37806;DHT22;25082;50.870;0.022;2023-07-31T13:42:26;20.60;81.60
37806;DHT22;25082;50.870;0.022;2023-07-31T13:44:52;20.60;81.50
37806;DHT22;25082;50.870;0.022;2023-07-31T13:47:17;20.60;81.50
37806;DHT22;25082;50.870;0.022;2023-07-31T13:49:43;20.60;81.50
37806;DHT22;25082;50.870;0.022;2023-07-31T13:52:09;20.60;81.50
37806;DHT22;25082;50.870;0.022;2023-07-31T13:54:35;20.60;81.50
37806;DHT22;25082;50.870;0.022;2023-07-31T13:57:01;20.60;81.50
37806;DHT22;25082;50.870;0.022;2023-07-31T13:59:27;20.60;81.40
37806;DHT22;25082;50.870;0.022;2023-07-31T14:01:52;20.60;81.40
37806;DHT22;25082;50.870;0.022;2023-07-31T14:04:18;20.60;81.40
37806;DHT22;25082;50.870;0.022;2023-07-31T14:06:44;20.60;81.50
37806;DHT22;25082;50.870;0.022;2023-07-31T14:09:10;20.60;82.00
37806;DHT22;25082;50.870;0.022;2023-07-31T14:11:36;20.60;81.60
37806;DHT22;25082;50.870;0.022;2023-07-31T14:14:01;20.60;81.50
37806;DHT22;25082;50.870;0.022;2023-07-31T14:16:27;20.60;81.50
37806;DHT22;25082;50.870;0.022;2023-07-31T14:18:54;20.60;81.60
37806;DHT22;25082;50.870;0.022;2023-07-31T14:21:19;20.60;81.50
37806;DHT22;25082;50.870;0.022;2023-07-31T14:23:46;20.60;81.40
37806;DHT22;25082;50.870;0.022;2023-07-31T14:26:11;20.60;81.40
37806;DHT22;25082;50.870;0.022;2023-07-31T14:28:38;20.60;81.30
37806;DHT22;25082;50.870;0.022;2023-07-31T14:31:03;20.60;81.30
37806;DHT22;25082;50.870;0.022;2023-07-31T14:33:29;20.60;81.20
37806;DHT22;25082;50.870;0.022;2023-07-31T14:35:55;20.60;81.30
37806;DHT22;25082;50.870;0.022;2023-07-31T14:38:21;20.60;81.30
37806;DHT22;25082;50.870;0.022;2023-07-31T14:40:47;20.60;81.40
37806;DHT22;25082;50.870;0.022;2023-07-31T14:43:13;20.60;81.40
37806;DHT22;25082;50.870;0.022;2023-07-31T14:45:38;20.60;81.30
37806;DHT22;25082;50.870;0.022;2023-07-31T14:48:04;20.60;81.20
37806;DHT22;25082;50.870;0.022;2023-07-31T14:50:30;20.60;81.20
37806;DHT22;25082;50.870;0.022;2023-07-31T14:52:56;20.60;81.20
37806;DHT22;25082;50.870;0.022;2023-07-31T14:55:21;20.60;81.30
37806;DHT22;25082;50.870;0.022;2023-07-31T14:57:47;20.60;81.30
37806;DHT22;25082;50.870;0.022;2023-07-31T15:00:13;20.60;81.20
37806;DHT22;25082;50.870;0.022;2023-07-31T15:02:40;20.60;81.30
37806;DHT22;25082;50.870;0.022;2023-07-31T15:05:06;20.60;81.20
37806;DHT22;25082;50.870;0.022;2023-07-31T15:07:33;20.60;81.20
37806;DHT22;25082;50.870;0.022;2023-07-31T15:09:59;20.60;81.20
37806;DHT22;25082;50.870;0.022;2023-07-31T15:12:25;20.60;81.20
37806;DHT22;25082;50.870;0.022;2023-07-31T15:14:51;20.60;81.20
37806;DHT22;25082;50.870;0.022;2023-07-31T15:17:17;20.60;81.20
37806;DHT22;25082;50.870;0.022;2023-07-31T15:19:43;20.60;81.20
37806;DHT22;25082;50.870;0.022;2023-07-31T15:22:09;20.60;81.20
37806;DHT22;25082;50.870;0.022;2023-07-31T15:24:35;20.60;81.10
37806;DHT22;25082;50.870;0.022;2023-07-31T15:27:00;20.60;81.20
37806;DHT22;25082;50.870;0.022;2023-07-31T15:29:29;20.60;81.10
37806;DHT22;25082;50.870;0.022;2023-07-31T15:31:55;20.60;81.00
37806;DHT22;25082;50.870;0.022;2023-07-31T15:34:21;20.60;81.10
37806;DHT22;25082;50.870;0.022;2023-07-31T15:36:47;20.60;81.00
37806;DHT22;25082;50.870;0.022;2023-07-31T15:39:13;20.60;81.10
37806;DHT22;25082;50.870;0.022;2023-07-31T15:41:39;20.60;81.00
37806;DHT22;25082;50.870;0.022;2023-07-31T15:44:06;20.60;80.90
37806;DHT22;25082;50.870;0.022;2023-07-31T15:46:31;20.60;80.90